sensor_id;sensor_type;location;lat;lon;timestamp;P1;durP1;ratioP1;P2;durP2;ratioP2
16314;SDS011;8266;52.150;4.768;2023-01-20T00:00:45;5.85;;;5.35;;
16314;SDS011;8266;52.150;4.768;2023-01-20T00:03:12;5.20;;;4.80;;
16314;SDS011;8266;52.150;4.768;2023-01-20T00:05:38;6.88;;;5.70;;
16314;SDS011;8266;52.150;4.768;2023-01-20T00:08:05;6.38;;;5.30;;
16314;SDS011;8266;52.150;4.768;2023-01-20T00:10:32;5.53;;;5.03;;
16314;SDS011;8266;52.150;4.768;2023-01-20T00:12:59;5.45;;;4.93;;
16314;SDS011;8266;52.150;4.768;2023-01-20T00:15:28;6.10;;;5.50;;
16314;SDS011;8266;52.150;4.768;2023-01-20T00:17:55;4.97;;;4.57;;
16314;SDS011;8266;52.150;4.768;2023-01-20T00:20:23;8.13;;;5.18;;
16314;SDS011;8266;52.150;4.768;2023-01-20T00:22:50;5.25;;;4.75;;
16314;SDS011;8266;52.150;4.768;2023-01-20T00:25:18;6.28;;;5.68;;
16314;SDS011;8266;52.150;4.768;2023-01-20T00:27:44;5.50;;;5.00;;
16314;SDS011;8266;52.150;4.768;2023-01-20T00:30:12;6.47;;;5.25;;
16314;SDS011;8266;52.150;4.768;2023-01-20T00:32:40;5.00;;;4.50;;
16314;SDS011;8266;52.150;4.768;2023-01-20T00:35:09;5.20;;;4.70;;
16314;SDS011;8266;52.150;4.768;2023-01-20T00:37:36;5.63;;;5.13;;
16314;SDS011;8266;52.150;4.768;2023-01-20T00:40:04;5.57;;;5.03;;
16314;SDS011;8266;52.150;4.768;2023-01-20T00:42:31;5.68;;;5.10;;
16314;SDS011;8266;52.150;4.768;2023-01-20T00:44:58;5.68;;;5.18;;
16314;SDS011;8266;52.150;4.768;2023-01-20T00:47:25;6.38;;;5.78;;
16314;SDS011;8266;52.150;4.768;2023-01-20T00:49:54;11.00;;;9.90;;
16314;SDS011;8266;52.150;4.768;2023-01-20T00:52:21;14.25;;;11.93;;
16314;SDS011;8266;52.150;4.768;2023-01-20T00:54:48;15.55;;;13.48;;
16314;SDS011;8266;52.150;4.768;2023-01-20T00:57:14;17.02;;;14.40;;
16314;SDS011;8266;52.150;4.768;2023-01-20T00:59:41;17.23;;;15.18;;
16314;SDS011;8266;52.150;4.768;2023-01-20T01:02:08;18.08;;;14.93;;
16314;SDS011;8266;52.150;4.768;2023-01-20T01:04:35;19.40;;;16.02;;
16314;SDS011;8266;52.150;4.768;2023-01-20T01:07:04;21.08;;;16.65;;
16314;SDS011;8266;52.150;4.768;2023-01-20T01:09:31;20.10;;;17.52;;
16314;SDS011;8266;52.150;4.768;2023-01-20T01:11:58;21.45;;;16.73;;
16314;SDS011;8266;52.150;4.768;2023-01-20T01:14:25;20.10;;;17.30;;
16314;SDS011;8266;52.150;4.768;2023-01-20T01:16:52;22.70;;;17.30;;
16314;SDS011;8266;52.150;4.768;2023-01-20T01:19:19;20.13;;;17.30;;
16314;SDS011;8266;52.150;4.768;2023-01-20T01:21:46;24.15;;;18.02;;
16314;SDS011;8266;52.150;4.768;2023-01-20T01:24:14;22.15;;;18.05;;
16314;SDS011;8266;52.150;4.768;2023-01-20T01:26:41;22.13;;;18.10;;
16314;SDS011;8266;52.150;4.768;2023-01-20T01:29:08;21.00;;;16.85;;
16314;SDS011;8266;52.150;4.768;2023-01-20T01:31:35;21.25;;;17.35;;
16314;SDS011;8266;52.150;4.768;2023-01-20T01:34:03;22.65;;;17.77;;
16314;SDS011;8266;52.150;4.768;2023-01-20T01:36:30;22.63;;;18.08;;
16314;SDS011;8266;52.150;4.768;2023-01-20T01:38:57;21.60;;;18.23;;
16314;SDS011;8266;52.150;4.768;2023-01-20T01:41:25;23.90;;;17.30;;
16314;SDS011;8266;52.150;4.768;2023-01-20T01:43:59;23.13;;;17.58;;
16314;SDS011;8266;52.150;4.768;2023-01-20T01:46:28;21.20;;;16.92;;
16314;SDS011;8266;52.150;4.768;2023-01-20T01:48:55;21.02;;;17.13;;
16314;SDS011;8266;52.150;4.768;2023-01-20T01:51:25;20.75;;;16.83;;
16314;SDS011;8266;52.150;4.768;2023-01-20T01:53:55;22.35;;;17.10;;
16314;SDS011;8266;52.150;4.768;2023-01-20T01:56:27;19.83;;;16.88;;
16314;SDS011;8266;52.150;4.768;2023-01-20T01:58:57;20.90;;;16.10;;
16314;SDS011;8266;52.150;4.768;2023-01-20T02:01:28;18.80;;;15.75;;
16314;SDS011;8266;52.150;4.768;2023-01-20T02:03:59;22.58;;;15.98;;
16314;SDS011;8266;52.150;4.768;2023-01-20T02:06:31;20.58;;;15.60;;
16314;SDS011;8266;52.150;4.768;2023-01-20T02:08:59;19.60;;;15.50;;
16314;SDS011;8266;52.150;4.768;2023-01-20T02:11:30;19.38;;;15.15;;
16314;SDS011;8266;52.150;4.768;2023-01-20T02:14:01;19.45;;;14.68;;
16314;SDS011;8266;52.150;4.768;2023-01-20T02:16:32;20.30;;;15.05;;
16314;SDS011;8266;52.150;4.768;2023-01-20T02:19:19;21.35;;;16.20;;
16314;SDS011;8266;52.150;4.768;2023-01-20T02:22:10;19.08;;;14.88;;
16314;SDS011;8266;52.150;4.768;2023-01-20T02:27:54;20.85;;;14.68;;
16314;SDS011;8266;52.150;4.768;2023-01-20T02:33:41;20.70;;;15.40;;
16314;SDS011;8266;52.150;4.768;2023-01-20T02:36:12;18.98;;;15.15;;
16314;SDS011;8266;52.150;4.768;2023-01-20T02:38:46;21.08;;;14.88;;
16314;SDS011;8266;52.150;4.768;2023-01-20T02:41:22;21.10;;;16.33;;
16314;SDS011;8266;52.150;4.768;2023-01-20T02:43:55;20.05;;;14.98;;
16314;SDS011;8266;52.150;4.768;2023-01-20T02:46:28;22.13;;;15.88;;
16314;SDS011;8266;52.150;4.768;2023-01-20T02:49:03;20.15;;;15.10;;
16314;SDS011;8266;52.150;4.768;2023-01-20T02:51:35;18.85;;;14.85;;
16314;SDS011;8266;52.150;4.768;2023-01-20T02:54:08;22.13;;;16.17;;
16314;SDS011;8266;52.150;4.768;2023-01-20T02:56:38;20.98;;;15.48;;
16314;SDS011;8266;52.150;4.768;2023-01-20T02:59:07;21.08;;;14.85;;
16314;SDS011;8266;52.150;4.768;2023-01-20T03:01:38;17.73;;;14.30;;
16314;SDS011;8266;52.150;4.768;2023-01-20T03:04:10;20.20;;;15.40;;
16314;SDS011;8266;52.150;4.768;2023-01-20T03:06:42;18.33;;;14.38;;
16314;SDS011;8266;52.150;4.768;2023-01-20T03:09:14;19.13;;;14.18;;
16314;SDS011;8266;52.150;4.768;2023-01-20T03:11:47;22.92;;;15.35;;
16314;SDS011;8266;52.150;4.768;2023-01-20T03:14:20;18.67;;;14.95;;
16314;SDS011;8266;52.150;4.768;2023-01-20T03:16:47;17.20;;;14.55;;
16314;SDS011;8266;52.150;4.768;2023-01-20T03:19:16;17.98;;;14.07;;
16314;SDS011;8266;52.150;4.768;2023-01-20T03:21:44;19.45;;;14.07;;
16314;SDS011;8266;52.150;4.768;2023-01-20T03:24:12;18.60;;;14.45;;
16314;SDS011;8266;52.150;4.768;2023-01-20T03:26:39;20.67;;;15.30;;
16314;SDS011;8266;52.150;4.768;2023-01-20T03:29:06;17.63;;;14.05;;
16314;SDS011;8266;52.150;4.768;2023-01-20T03:31:37;18.20;;;14.10;;
16314;SDS011;8266;52.150;4.768;2023-01-20T03:34:06;21.15;;;14.98;;
16314;SDS011;8266;52.150;4.768;2023-01-20T03:36:38;16.85;;;13.27;;
16314;SDS011;8266;52.150;4.768;2023-01-20T03:39:07;18.20;;;14.07;;
16314;SDS011;8266;52.150;4.768;2023-01-20T03:41:40;17.05;;;13.23;;
16314;SDS011;8266;52.150;4.768;2023-01-20T03:44:18;18.95;;;13.18;;
16314;SDS011;8266;52.150;4.768;2023-01-20T03:46:55;15.57;;;13.13;;
16314;SDS011;8266;52.150;4.768;2023-01-20T03:49:29;16.63;;;13.10;;
16314;SDS011;8266;52.150;4.768;2023-01-20T03:52:06;16.63;;;13.07;;
16314;SDS011;8266;52.150;4.768;2023-01-20T03:54:41;16.23;;;13.38;;
16314;SDS011;8266;52.150;4.768;2023-01-20T03:57:14;17.42;;;13.18;;
16314;SDS011;8266;52.150;4.768;2023-01-20T03:59:44;17.35;;;13.43;;
16314;SDS011;8266;52.150;4.768;2023-01-20T04:02:14;16.17;;;12.90;;
16314;SDS011;8266;52.150;4.768;2023-01-20T04:04:41;17.35;;;13.20;;
16314;SDS011;8266;52.150;4.768;2023-01-20T04:07:13;14.45;;;12.65;;
16314;SDS011;8266;52.150;4.768;2023-01-20T04:09:46;15.02;;;13.07;;
16314;SDS011;8266;52.150;4.768;2023-01-20T04:12:16;18.25;;;13.95;;
16314;SDS011;8266;52.150;4.768;2023-01-20T04:14:43;18.45;;;14.63;;
16314;SDS011;8266;52.150;4.768;2023-01-20T04:17:10;18.52;;;13.98;;
16314;SDS011;8266;52.150;4.768;2023-01-20T04:19:38;16.38;;;12.60;;
16314;SDS011;8266;52.150;4.768;2023-01-20T04:22:06;17.63;;;13.32;;
16314;SDS011;8266;52.150;4.768;2023-01-20T04:24:41;16.92;;;13.77;;
16314;SDS011;8266;52.150;4.768;2023-01-20T04:27:11;16.73;;;12.90;;
16314;SDS011;8266;52.150;4.768;2023-01-20T04:29:38;15.93;;;13.98;;
16314;SDS011;8266;52.150;4.768;2023-01-20T04:32:06;20.33;;;14.70;;
16314;SDS011;8266;52.150;4.768;2023-01-20T04:34:33;20.15;;;14.93;;
16314;SDS011;8266;52.150;4.768;2023-01-20T04:36:59;16.40;;;14.07;;
16314;SDS011;8266;52.150;4.768;2023-01-20T04:39:26;17.60;;;14.18;;
16314;SDS011;8266;52.150;4.768;2023-01-20T04:41:55;19.27;;;15.13;;
16314;SDS011;8266;52.150;4.768;2023-01-20T04:44:22;18.15;;;15.27;;
16314;SDS011;8266;52.150;4.768;2023-01-20T04:46:50;20.70;;;14.60;;
16314;SDS011;8266;52.150;4.768;2023-01-20T04:49:22;19.10;;;15.18;;
16314;SDS011;8266;52.150;4.768;2023-01-20T04:51:49;20.77;;;14.85;;
16314;SDS011;8266;52.150;4.768;2023-01-20T04:54:16;19.15;;;15.68;;
16314;SDS011;8266;52.150;4.768;2023-01-20T04:56:43;18.90;;;15.07;;
16314;SDS011;8266;52.150;4.768;2023-01-20T04:59:11;19.95;;;15.27;;
16314;SDS011;8266;52.150;4.768;2023-01-20T05:01:38;20.20;;;15.15;;
16314;SDS011;8266;52.150;4.768;2023-01-20T05:04:05;19.73;;;15.40;;
16314;SDS011;8266;52.150;4.768;2023-01-20T05:06:32;21.33;;;15.23;;
16314;SDS011;8266;52.150;4.768;2023-01-20T05:08:59;21.48;;;16.23;;
16314;SDS011;8266;52.150;4.768;2023-01-20T05:11:26;24.08;;;16.85;;
16314;SDS011;8266;52.150;4.768;2023-01-20T05:13:53;22.60;;;17.48;;
16314;SDS011;8266;52.150;4.768;2023-01-20T05:16:21;23.27;;;17.23;;
16314;SDS011;8266;52.150;4.768;2023-01-20T05:18:50;26.08;;;19.25;;
16314;SDS011;8266;52.150;4.768;2023-01-20T05:21:17;24.48;;;18.75;;
16314;SDS011;8266;52.150;4.768;2023-01-20T05:23:44;24.60;;;19.27;;
16314;SDS011;8266;52.150;4.768;2023-01-20T05:26:11;27.33;;;19.52;;
16314;SDS011;8266;52.150;4.768;2023-01-20T05:28:38;28.70;;;20.25;;
16314;SDS011;8266;52.150;4.768;2023-01-20T05:31:05;27.85;;;19.63;;
16314;SDS011;8266;52.150;4.768;2023-01-20T05:33:33;28.90;;;20.95;;
16314;SDS011;8266;52.150;4.768;2023-01-20T05:36:03;27.75;;;18.95;;
16314;SDS011;8266;52.150;4.768;2023-01-20T05:38:30;30.38;;;21.48;;
16314;SDS011;8266;52.150;4.768;2023-01-20T05:40:58;30.30;;;20.80;;
16314;SDS011;8266;52.150;4.768;2023-01-20T05:43:25;28.10;;;20.35;;
16314;SDS011;8266;52.150;4.768;2023-01-20T05:45:52;30.33;;;20.80;;
16314;SDS011;8266;52.150;4.768;2023-01-20T05:48:19;25.35;;;19.50;;
16314;SDS011;8266;52.150;4.768;2023-01-20T05:50:48;35.35;;;21.40;;
16314;SDS011;8266;52.150;4.768;2023-01-20T05:53:15;30.25;;;22.10;;
16314;SDS011;8266;52.150;4.768;2023-01-20T05:55:42;32.67;;;21.95;;
16314;SDS011;8266;52.150;4.768;2023-01-20T05:58:10;32.83;;;23.00;;
16314;SDS011;8266;52.150;4.768;2023-01-20T06:00:37;33.00;;;21.08;;
16314;SDS011;8266;52.150;4.768;2023-01-20T06:03:04;29.33;;;21.38;;
16314;SDS011;8266;52.150;4.768;2023-01-20T06:05:31;33.58;;;21.60;;
16314;SDS011;8266;52.150;4.768;2023-01-20T06:08:00;29.35;;;19.75;;
16314;SDS011;8266;52.150;4.768;2023-01-20T06:10:27;32.88;;;20.45;;
16314;SDS011;8266;52.150;4.768;2023-01-20T06:12:54;28.00;;;19.70;;
16314;SDS011;8266;52.150;4.768;2023-01-20T06:15:21;31.15;;;21.05;;
16314;SDS011;8266;52.150;4.768;2023-01-20T06:17:49;29.00;;;20.85;;
16314;SDS011;8266;52.150;4.768;2023-01-20T06:20:16;30.08;;;21.10;;
16314;SDS011;8266;52.150;4.768;2023-01-20T06:22:43;27.33;;;20.02;;
16314;SDS011;8266;52.150;4.768;2023-01-20T06:25:12;32.47;;;21.15;;
16314;SDS011;8266;52.150;4.768;2023-01-20T06:27:39;33.00;;;21.45;;
16314;SDS011;8266;52.150;4.768;2023-01-20T06:30:06;31.65;;;20.40;;
16314;SDS011;8266;52.150;4.768;2023-01-20T06:32:34;29.52;;;19.83;;
16314;SDS011;8266;52.150;4.768;2023-01-20T06:35:01;31.52;;;20.60;;
16314;SDS011;8266;52.150;4.768;2023-01-20T06:37:28;27.75;;;19.80;;
16314;SDS011;8266;52.150;4.768;2023-01-20T06:39:55;27.52;;;20.27;;
16314;SDS011;8266;52.150;4.768;2023-01-20T06:42:24;28.60;;;20.17;;
16314;SDS011;8266;52.150;4.768;2023-01-20T06:44:50;27.83;;;20.13;;
16314;SDS011;8266;52.150;4.768;2023-01-20T06:47:17;28.33;;;19.55;;
16314;SDS011;8266;52.150;4.768;2023-01-20T06:49:44;27.55;;;20.02;;
16314;SDS011;8266;52.150;4.768;2023-01-20T06:52:11;27.88;;;19.42;;
16314;SDS011;8266;52.150;4.768;2023-01-20T06:54:38;24.92;;;18.05;;
16314;SDS011;8266;52.150;4.768;2023-01-20T06:57:05;26.75;;;17.77;;
16314;SDS011;8266;52.150;4.768;2023-01-20T06:59:34;22.27;;;16.80;;
16314;SDS011;8266;52.150;4.768;2023-01-20T07:02:01;23.10;;;17.33;;
16314;SDS011;8266;52.150;4.768;2023-01-20T07:04:28;24.40;;;18.38;;
16314;SDS011;8266;52.150;4.768;2023-01-20T07:06:55;22.98;;;16.77;;
16314;SDS011;8266;52.150;4.768;2023-01-20T07:09:21;21.23;;;16.33;;
16314;SDS011;8266;52.150;4.768;2023-01-20T07:11:48;19.33;;;15.55;;
16314;SDS011;8266;52.150;4.768;2023-01-20T07:14:15;23.40;;;16.85;;
16314;SDS011;8266;52.150;4.768;2023-01-20T07:16:44;23.80;;;16.80;;
16314;SDS011;8266;52.150;4.768;2023-01-20T07:19:12;21.15;;;16.48;;
16314;SDS011;8266;52.150;4.768;2023-01-20T07:21:39;19.63;;;15.77;;
16314;SDS011;8266;52.150;4.768;2023-01-20T07:24:07;19.10;;;15.25;;
16314;SDS011;8266;52.150;4.768;2023-01-20T07:26:35;20.30;;;15.88;;
16314;SDS011;8266;52.150;4.768;2023-01-20T07:29:02;19.50;;;15.75;;
16314;SDS011;8266;52.150;4.768;2023-01-20T07:31:29;17.40;;;14.80;;
16314;SDS011;8266;52.150;4.768;2023-01-20T07:33:59;20.75;;;15.65;;
16314;SDS011;8266;52.150;4.768;2023-01-20T07:36:26;19.45;;;14.48;;
16314;SDS011;8266;52.150;4.768;2023-01-20T07:38:53;20.50;;;15.93;;
16314;SDS011;8266;52.150;4.768;2023-01-20T07:41:20;19.65;;;14.98;;
16314;SDS011;8266;52.150;4.768;2023-01-20T07:43:49;18.38;;;15.07;;
16314;SDS011;8266;52.150;4.768;2023-01-20T07:46:16;18.75;;;14.95;;
16314;SDS011;8266;52.150;4.768;2023-01-20T07:48:44;19.70;;;15.60;;
16314;SDS011;8266;52.150;4.768;2023-01-20T07:51:13;20.08;;;14.75;;
16314;SDS011;8266;52.150;4.768;2023-01-20T07:53:41;18.60;;;15.02;;
16314;SDS011;8266;52.150;4.768;2023-01-20T07:56:11;18.75;;;14.98;;
16314;SDS011;8266;52.150;4.768;2023-01-20T07:58:38;18.17;;;15.13;;
16314;SDS011;8266;52.150;4.768;2023-01-20T08:01:06;17.70;;;15.02;;
16314;SDS011;8266;52.150;4.768;2023-01-20T08:03:36;17.77;;;14.38;;
16314;SDS011;8266;52.150;4.768;2023-01-20T08:06:03;19.50;;;15.48;;
16314;SDS011;8266;52.150;4.768;2023-01-20T08:08:33;19.90;;;14.23;;
16314;SDS011;8266;52.150;4.768;2023-01-20T08:11:01;17.23;;;14.43;;
16314;SDS011;8266;52.150;4.768;2023-01-20T08:13:29;17.15;;;13.82;;
16314;SDS011;8266;52.150;4.768;2023-01-20T08:15:58;14.98;;;13.15;;
16314;SDS011;8266;52.150;4.768;2023-01-20T08:18:26;14.65;;;13.15;;
16314;SDS011;8266;52.150;4.768;2023-01-20T08:20:53;15.07;;;12.90;;
16314;SDS011;8266;52.150;4.768;2023-01-20T08:23:20;15.80;;;12.70;;
16314;SDS011;8266;52.150;4.768;2023-01-20T08:25:48;15.48;;;12.45;;
16314;SDS011;8266;52.150;4.768;2023-01-20T08:28:22;13.70;;;12.15;;
16314;SDS011;8266;52.150;4.768;2023-01-20T08:30:49;13.63;;;12.20;;
16314;SDS011;8266;52.150;4.768;2023-01-20T08:33:16;15.68;;;13.60;;
16314;SDS011;8266;52.150;4.768;2023-01-20T08:35:43;15.77;;;13.30;;
16314;SDS011;8266;52.150;4.768;2023-01-20T08:38:11;13.05;;;11.73;;
16314;SDS011;8266;52.150;4.768;2023-01-20T08:40:39;15.52;;;13.88;;
16314;SDS011;8266;52.150;4.768;2023-01-20T08:43:07;14.27;;;12.77;;
16314;SDS011;8266;52.150;4.768;2023-01-20T08:45:34;14.85;;;13.30;;
16314;SDS011;8266;52.150;4.768;2023-01-20T08:48:02;14.68;;;12.98;;
16314;SDS011;8266;52.150;4.768;2023-01-20T08:50:29;15.45;;;13.85;;
16314;SDS011;8266;52.150;4.768;2023-01-20T08:52:56;15.02;;;13.43;;
16314;SDS011;8266;52.150;4.768;2023-01-20T08:55:23;15.48;;;13.90;;
16314;SDS011;8266;52.150;4.768;2023-01-20T08:57:50;15.20;;;13.63;;
16314;SDS011;8266;52.150;4.768;2023-01-20T09:00:19;14.95;;;12.80;;
16314;SDS011;8266;52.150;4.768;2023-01-20T09:02:46;14.65;;;13.02;;
16314;SDS011;8266;52.150;4.768;2023-01-20T09:05:13;13.93;;;12.50;;
16314;SDS011;8266;52.150;4.768;2023-01-20T09:07:40;14.40;;;12.65;;
16314;SDS011;8266;52.150;4.768;2023-01-20T09:10:08;13.32;;;11.75;;
16314;SDS011;8266;52.150;4.768;2023-01-20T09:12:36;12.70;;;11.40;;
16314;SDS011;8266;52.150;4.768;2023-01-20T09:15:04;13.63;;;12.00;;
16314;SDS011;8266;52.150;4.768;2023-01-20T09:17:34;12.48;;;11.18;;
16314;SDS011;8266;52.150;4.768;2023-01-20T09:20:01;12.40;;;10.98;;
16314;SDS011;8266;52.150;4.768;2023-01-20T09:22:28;11.80;;;10.50;;
16314;SDS011;8266;52.150;4.768;2023-01-20T09:24:55;12.38;;;11.07;;
16314;SDS011;8266;52.150;4.768;2023-01-20T09:27:22;12.50;;;11.20;;
16314;SDS011;8266;52.150;4.768;2023-01-20T09:29:49;13.23;;;11.82;;
16314;SDS011;8266;52.150;4.768;2023-01-20T09:32:16;13.20;;;11.85;;
16314;SDS011;8266;52.150;4.768;2023-01-20T09:34:44;12.13;;;10.93;;
16314;SDS011;8266;52.150;4.768;2023-01-20T09:37:11;11.68;;;10.50;;
16314;SDS011;8266;52.150;4.768;2023-01-20T09:39:56;12.05;;;10.85;;
16314;SDS011;8266;52.150;4.768;2023-01-20T09:42:57;12.75;;;11.45;;
16314;SDS011;8266;52.150;4.768;2023-01-20T09:45:58;11.57;;;10.48;;
16314;SDS011;8266;52.150;4.768;2023-01-20T09:48:31;12.32;;;10.95;;
16314;SDS011;8266;52.150;4.768;2023-01-20T09:51:22;10.57;;;9.57;;
16314;SDS011;8266;52.150;4.768;2023-01-20T09:54:13;10.98;;;9.88;;
16314;SDS011;8266;52.150;4.768;2023-01-20T09:56:47;11.70;;;10.50;;
16314;SDS011;8266;52.150;4.768;2023-01-20T09:59:17;12.63;;;11.32;;
16314;SDS011;8266;52.150;4.768;2023-01-20T10:01:48;14.85;;;13.35;;
16314;SDS011;8266;52.150;4.768;2023-01-20T10:04:19;14.27;;;12.88;;
16314;SDS011;8266;52.150;4.768;2023-01-20T10:06:56;15.73;;;14.05;;
16314;SDS011;8266;52.150;4.768;2023-01-20T10:09:28;15.40;;;13.90;;
16314;SDS011;8266;52.150;4.768;2023-01-20T10:12:04;15.63;;;13.95;;
16314;SDS011;8266;52.150;4.768;2023-01-20T10:14:37;15.98;;;13.80;;
16314;SDS011;8266;52.150;4.768;2023-01-20T10:17:08;15.25;;;13.65;;
16314;SDS011;8266;52.150;4.768;2023-01-20T10:19:42;17.23;;;14.75;;
16314;SDS011;8266;52.150;4.768;2023-01-20T10:22:17;16.15;;;14.52;;
16314;SDS011;8266;52.150;4.768;2023-01-20T10:24:49;17.08;;;15.30;;
16314;SDS011;8266;52.150;4.768;2023-01-20T10:27:20;16.50;;;14.77;;
16314;SDS011;8266;52.150;4.768;2023-01-20T10:29:51;16.75;;;14.95;;
16314;SDS011;8266;52.150;4.768;2023-01-20T10:32:23;15.82;;;14.20;;
16314;SDS011;8266;52.150;4.768;2023-01-20T10:34:56;16.58;;;14.98;;
16314;SDS011;8266;52.150;4.768;2023-01-20T10:37:30;14.85;;;13.35;;
16314;SDS011;8266;52.150;4.768;2023-01-20T10:39:59;16.27;;;14.02;;
16314;SDS011;8266;52.150;4.768;2023-01-20T10:42:38;14.85;;;13.43;;
16314;SDS011;8266;52.150;4.768;2023-01-20T10:45:08;14.55;;;12.82;;
16314;SDS011;8266;52.150;4.768;2023-01-20T10:47:46;14.82;;;13.07;;
16314;SDS011;8266;52.150;4.768;2023-01-20T10:50:25;13.48;;;12.07;;
16314;SDS011;8266;52.150;4.768;2023-01-20T10:53:12;14.63;;;13.15;;
16314;SDS011;8266;52.150;4.768;2023-01-20T10:55:50;13.20;;;11.82;;
16314;SDS011;8266;52.150;4.768;2023-01-20T10:58:25;12.82;;;11.45;;
16314;SDS011;8266;52.150;4.768;2023-01-20T11:00:55;12.82;;;11.52;;
16314;SDS011;8266;52.150;4.768;2023-01-20T11:03:27;12.35;;;11.15;;
16314;SDS011;8266;52.150;4.768;2023-01-20T11:05:59;14.23;;;12.77;;
16314;SDS011;8266;52.150;4.768;2023-01-20T11:08:28;12.55;;;11.35;;
16314;SDS011;8266;52.150;4.768;2023-01-20T11:10:57;13.70;;;12.30;;
16314;SDS011;8266;52.150;4.768;2023-01-20T11:13:25;13.35;;;12.05;;
16314;SDS011;8266;52.150;4.768;2023-01-20T11:15:53;14.27;;;12.88;;
16314;SDS011;8266;52.150;4.768;2023-01-20T11:18:25;14.20;;;12.70;;
16314;SDS011;8266;52.150;4.768;2023-01-20T11:20:55;13.07;;;11.75;;
16314;SDS011;8266;52.150;4.768;2023-01-20T11:23:27;15.45;;;13.20;;
16314;SDS011;8266;52.150;4.768;2023-01-20T11:26:04;12.98;;;11.73;;
16314;SDS011;8266;52.150;4.768;2023-01-20T11:28:43;13.15;;;11.95;;
16314;SDS011;8266;52.150;4.768;2023-01-20T11:31:13;13.93;;;12.50;;
16314;SDS011;8266;52.150;4.768;2023-01-20T11:33:53;15.77;;;13.52;;
16314;SDS011;8266;52.150;4.768;2023-01-20T11:36:21;13.93;;;11.88;;
16314;SDS011;8266;52.150;4.768;2023-01-20T11:38:52;12.00;;;10.55;;
16314;SDS011;8266;52.150;4.768;2023-01-20T11:41:20;11.18;;;10.07;;
16314;SDS011;8266;52.150;4.768;2023-01-20T11:43:49;12.63;;;11.32;;
16314;SDS011;8266;52.150;4.768;2023-01-20T11:46:27;11.60;;;10.45;;
16314;SDS011;8266;52.150;4.768;2023-01-20T11:49:07;13.70;;;12.30;;
16314;SDS011;8266;52.150;4.768;2023-01-20T11:51:46;15.05;;;13.50;;
16314;SDS011;8266;52.150;4.768;2023-01-20T11:54:17;15.30;;;12.70;;
16314;SDS011;8266;52.150;4.768;2023-01-20T11:56:46;14.80;;;13.27;;
16314;SDS011;8266;52.150;4.768;2023-01-20T11:59:20;14.93;;;13.43;;
16314;SDS011;8266;52.150;4.768;2023-01-20T12:01:53;14.48;;;12.85;;
16314;SDS011;8266;52.150;4.768;2023-01-20T12:04:32;12.07;;;10.80;;
16314;SDS011;8266;52.150;4.768;2023-01-20T12:07:23;11.98;;;10.73;;
16314;SDS011;8266;52.150;4.768;2023-01-20T12:09:55;12.93;;;11.63;;
16314;SDS011;8266;52.150;4.768;2023-01-20T12:12:28;12.70;;;11.40;;
16314;SDS011;8266;52.150;4.768;2023-01-20T12:15:03;11.80;;;10.60;;
16314;SDS011;8266;52.150;4.768;2023-01-20T12:17:39;13.57;;;12.13;;
16314;SDS011;8266;52.150;4.768;2023-01-20T12:20:15;15.02;;;13.27;;
16314;SDS011;8266;52.150;4.768;2023-01-20T12:23:00;14.30;;;12.73;;
16314;SDS011;8266;52.150;4.768;2023-01-20T12:25:41;13.50;;;12.10;;
16314;SDS011;8266;52.150;4.768;2023-01-20T12:28:15;16.00;;;12.98;;
16314;SDS011;8266;52.150;4.768;2023-01-20T12:30:52;13.10;;;11.48;;
16314;SDS011;8266;52.150;4.768;2023-01-20T12:33:24;14.52;;;12.02;;
16314;SDS011;8266;52.150;4.768;2023-01-20T12:35:59;14.05;;;12.63;;
16314;SDS011;8266;52.150;4.768;2023-01-20T12:41:58;13.55;;;12.25;;
16314;SDS011;8266;52.150;4.768;2023-01-20T12:44:44;12.80;;;11.45;;
16314;SDS011;8266;52.150;4.768;2023-01-20T12:47:18;13.48;;;12.00;;
16314;SDS011;8266;52.150;4.768;2023-01-20T12:49:57;13.30;;;11.98;;
16314;SDS011;8266;52.150;4.768;2023-01-20T12:52:38;12.10;;;10.80;;
16314;SDS011;8266;52.150;4.768;2023-01-20T12:55:16;12.27;;;10.98;;
16314;SDS011;8266;52.150;4.768;2023-01-20T12:57:53;12.15;;;10.90;;
16314;SDS011;8266;52.150;4.768;2023-01-20T13:00:39;12.30;;;11.10;;
16314;SDS011;8266;52.150;4.768;2023-01-20T13:09:15;12.07;;;10.88;;
16314;SDS011;8266;52.150;4.768;2023-01-20T13:11:55;11.55;;;10.35;;
16314;SDS011;8266;52.150;4.768;2023-01-20T13:14:33;12.00;;;10.80;;
16314;SDS011;8266;52.150;4.768;2023-01-20T13:17:10;12.32;;;11.13;;
16314;SDS011;8266;52.150;4.768;2023-01-20T13:19:42;12.55;;;10.52;;
16314;SDS011;8266;52.150;4.768;2023-01-20T13:22:14;13.13;;;11.82;;
16314;SDS011;8266;52.150;4.768;2023-01-20T13:24:45;11.50;;;10.40;;
16314;SDS011;8266;52.150;4.768;2023-01-20T13:27:13;11.25;;;10.18;;
16314;SDS011;8266;52.150;4.768;2023-01-20T13:29:50;11.57;;;10.48;;
16314;SDS011;8266;52.150;4.768;2023-01-20T13:32:26;11.70;;;10.50;;
16314;SDS011;8266;52.150;4.768;2023-01-20T13:34:54;9.93;;;9.02;;
16314;SDS011;8266;52.150;4.768;2023-01-20T13:37:23;10.85;;;9.75;;
16314;SDS011;8266;52.150;4.768;2023-01-20T13:39:52;9.57;;;8.13;;
16314;SDS011;8266;52.150;4.768;2023-01-20T13:42:25;10.07;;;9.05;;
16314;SDS011;8266;52.150;4.768;2023-01-20T13:50:48;8.85;;;7.95;;
16314;SDS011;8266;52.150;4.768;2023-01-20T13:53:24;8.48;;;7.68;;
16314;SDS011;8266;52.150;4.768;2023-01-20T13:55:57;8.48;;;7.68;;
16314;SDS011;8266;52.150;4.768;2023-01-20T13:58:25;7.65;;;6.70;;
16314;SDS011;8266;52.150;4.768;2023-01-20T14:00:56;7.85;;;7.15;;
16314;SDS011;8266;52.150;4.768;2023-01-20T14:03:25;7.38;;;6.68;;
16314;SDS011;8266;52.150;4.768;2023-01-20T14:05:54;8.30;;;7.50;;
16314;SDS011;8266;52.150;4.768;2023-01-20T14:08:24;7.88;;;7.07;;
16314;SDS011;8266;52.150;4.768;2023-01-20T14:11:01;7.55;;;6.85;;
16314;SDS011;8266;52.150;4.768;2023-01-20T14:13:37;8.77;;;7.88;;
16314;SDS011;8266;52.150;4.768;2023-01-20T14:16:15;9.70;;;8.75;;
16314;SDS011;8266;52.150;4.768;2023-01-20T14:18:43;9.35;;;8.30;;
16314;SDS011;8266;52.150;4.768;2023-01-20T14:21:14;8.27;;;7.53;;
16314;SDS011;8266;52.150;4.768;2023-01-20T14:23:44;8.55;;;7.75;;
16314;SDS011;8266;52.150;4.768;2023-01-20T14:26:12;9.75;;;8.80;;
16314;SDS011;8266;52.150;4.768;2023-01-20T14:28:43;10.35;;;9.35;;
16314;SDS011;8266;52.150;4.768;2023-01-20T14:31:25;11.13;;;10.13;;
16314;SDS011;8266;52.150;4.768;2023-01-20T14:33:59;11.57;;;10.48;;
16314;SDS011;8266;52.150;4.768;2023-01-20T14:36:28;11.75;;;10.63;;
16314;SDS011;8266;52.150;4.768;2023-01-20T14:38:58;12.48;;;11.18;;
16314;SDS011;8266;52.150;4.768;2023-01-20T14:41:28;13.32;;;11.65;;
16314;SDS011;8266;52.150;4.768;2023-01-20T14:44:00;12.82;;;11.52;;
16314;SDS011;8266;52.150;4.768;2023-01-20T14:46:29;11.15;;;10.05;;
16314;SDS011;8266;52.150;4.768;2023-01-20T14:48:58;11.95;;;10.75;;
16314;SDS011;8266;52.150;4.768;2023-01-20T14:51:25;12.35;;;11.15;;
16314;SDS011;8266;52.150;4.768;2023-01-20T14:57:17;12.77;;;11.48;;
16314;SDS011;8266;52.150;4.768;2023-01-20T15:00:10;13.25;;;11.65;;
16314;SDS011;8266;52.150;4.768;2023-01-20T15:02:42;12.90;;;11.57;;
16314;SDS011;8266;52.150;4.768;2023-01-20T15:05:22;13.38;;;11.98;;
16314;SDS011;8266;52.150;4.768;2023-01-20T15:08:05;12.23;;;10.98;;
16314;SDS011;8266;52.150;4.768;2023-01-20T15:10:45;12.38;;;11.07;;
16314;SDS011;8266;52.150;4.768;2023-01-20T15:13:33;11.90;;;10.57;;
16314;SDS011;8266;52.150;4.768;2023-01-20T15:16:06;12.85;;;11.52;;
16314;SDS011;8266;52.150;4.768;2023-01-20T15:18:43;12.23;;;10.95;;
16314;SDS011;8266;52.150;4.768;2023-01-20T15:21:30;11.43;;;10.32;;
16314;SDS011;8266;52.150;4.768;2023-01-20T15:24:05;11.48;;;10.27;;